Time;durP1;ratioP1;P1;durP2;ratioP2;P2;SDS_P1;SDS_P2;PMS_P1;PMS_P2;Temp;Humidity;BMP_temperature;BMP_pressure;BME280_temperature;BME280_humidity;BME280_pressure;Samples;Min_cycle;Max_cycle;Signal;HPM_P1;HPM_P2
2023/07/19 00:00:24;;;;;;;8.73;6.88;;;16.50;99.90;;;;;;5107893;27;20378;-40
2023/07/19 00:02:50;;;;;;;7.20;6.60;;;16.50;99.90;;;;;;5117581;27;20563;-40
2023/07/19 00:05:15;;;;;;;7.50;6.88;;;16.50;99.90;;;;;;5112800;27;20035;-40
2023/07/19 00:07:41;;;;;;;8.57;7.35;;;16.50;99.90;;;;;;5114468;27;20043;-42
2023/07/19 00:10:07;;;;;;;10.10;7.00;;;16.50;99.90;;;;;;5098854;27;20541;-40
2023/07/19 00:12:33;;;;;;;8.35;7.57;;;16.40;99.90;;;;;;5115231;27;20035;-40
2023/07/19 00:14:59;;;;;;;10.45;7.80;;;16.40;99.90;;;;;;5098634;27;20496;-39
2023/07/19 00:17:25;;;;;;;7.78;7.03;;;16.40;99.90;;;;;;5114539;27;20050;-40
2023/07/19 00:19:50;;;;;;;13.40;8.35;;;16.40;99.90;;;;;;5118393;27;20051;-39
2023/07/19 00:22:16;;;;;;;9.18;7.85;;;16.30;99.90;;;;;;5093645;27;20054;-40
2023/07/19 00:24:42;;;;;;;8.98;8.07;;;16.40;99.90;;;;;;5121000;27;20047;-40
2023/07/19 00:27:07;;;;;;;8.20;7.40;;;16.30;99.90;;;;;;5133531;27;20039;-40
2023/07/19 00:29:33;;;;;;;9.43;8.18;;;16.30;99.90;;;;;;5126870;27;20081;-40
2023/07/19 00:31:59;;;;;;;9.27;7.97;;;16.20;99.90;;;;;;5118552;27;20500;-40
2023/07/19 00:34:24;;;;;;;8.45;7.60;;;16.20;99.90;;;;;;5117688;27;20416;-40
2023/07/19 00:36:50;;;;;;;9.02;8.13;;;16.20;99.90;;;;;;5097288;27;20158;-40
2023/07/19 00:39:16;;;;;;;8.85;7.95;;;16.30;99.90;;;;;;5091396;28;20128;-40
2023/07/19 00:41:41;;;;;;;8.90;8.02;;;16.30;99.90;;;;;;5113285;27;20402;-39
2023/07/19 00:44:07;;;;;;;11.60;9.00;;;16.20;99.90;;;;;;5113705;27;20426;-40
2023/07/19 00:46:33;;;;;;;11.10;8.48;;;16.20;99.90;;;;;;5097914;27;20395;-40
2023/07/19 00:49:00;;;;;;;9.43;8.52;;;16.20;99.90;;;;;;5115960;27;20080;-40
2023/07/19 00:51:26;;;;;;;10.15;8.38;;;16.20;99.90;;;;;;5097806;27;20160;-40
2023/07/19 00:53:53;;;;;;;8.75;7.85;;;16.20;99.90;;;;;;5116692;27;20423;-39
2023/07/19 00:56:20;;;;;;;10.68;8.52;;;16.20;99.90;;;;;;5116278;27;20042;-40
2023/07/19 00:58:47;;;;;;;11.15;9.05;;;16.20;99.90;;;;;;5107068;27;20038;-39
2023/07/19 01:01:13;;;;;;;9.00;8.18;;;16.20;99.90;;;;;;5116858;27;20043;-40
2023/07/19 01:03:39;;;;;;;9.68;8.68;;;16.10;99.90;;;;;;5116870;27;20473;-40
2023/07/19 01:06:05;;;;;;;11.05;9.07;;;16.00;99.90;;;;;;5115974;27;20043;-40
2023/07/19 01:08:31;;;;;;;11.00;9.93;;;16.00;99.90;;;;;;5108016;27;20440;-39
2023/07/19 01:10:56;;;;;;;13.43;9.98;;;16.00;99.90;;;;;;5114966;27;20131;-40
2023/07/19 01:13:22;;;;;;;12.75;11.13;;;16.00;99.90;;;;;;5097054;27;20143;-39
2023/07/19 01:15:48;;;;;;;10.90;9.80;;;16.00;99.90;;;;;;5103397;27;20729;-40
2023/07/19 01:18:13;;;;;;;10.80;9.70;;;16.00;99.90;;;;;;5107084;27;20062;-40
2023/07/19 01:20:39;;;;;;;11.35;10.23;;;16.00;99.90;;;;;;5115605;27;20354;-40
2023/07/19 01:23:05;;;;;;;11.13;10.13;;;15.90;99.90;;;;;;5094613;28;20055;-39
2023/07/19 01:25:31;;;;;;;10.65;9.65;;;15.90;99.90;;;;;;5121476;27;20438;-40
2023/07/19 01:27:57;;;;;;;11.35;10.20;;;15.90;99.90;;;;;;5114638;27;20039;-41
2023/07/19 01:30:23;;;;;;;12.15;11.00;;;16.00;99.90;;;;;;5115731;27;20529;-40
2023/07/19 01:32:48;;;;;;;12.02;10.85;;;16.00;99.90;;;;;;5114320;27;20031;-41
2023/07/19 01:35:15;;;;;;;14.57;10.77;;;16.00;99.90;;;;;;5112007;27;20082;-40
2023/07/19 01:37:40;;;;;;;11.77;10.73;;;16.00;99.90;;;;;;5114566;27;20043;-39
2023/07/19 01:40:07;;;;;;;11.85;10.75;;;15.90;99.90;;;;;;5115553;27;20047;-39
2023/07/19 01:42:32;;;;;;;12.30;11.20;;;16.00;99.90;;;;;;5115383;27;20149;-40
2023/07/19 01:45:00;;;;;;;11.23;10.23;;;15.90;99.90;;;;;;5109049;27;20442;-40
2023/07/19 01:47:26;;;;;;;11.18;10.18;;;16.00;99.90;;;;;;5095481;28;20440;-40
2023/07/19 01:49:52;;;;;;;11.63;10.57;;;16.00;99.90;;;;;;5116157;27;20103;-40
2023/07/19 01:52:17;;;;;;;12.35;10.45;;;16.00;99.90;;;;;;5115314;27;20043;-40
2023/07/19 01:54:43;;;;;;;11.18;9.80;;;16.00;99.90;;;;;;5111585;27;20047;-40
2023/07/19 01:57:09;;;;;;;12.77;10.70;;;16.10;99.90;;;;;;5093498;28;20043;-40
2023/07/19 01:59:35;;;;;;;11.85;10.70;;;16.10;99.90;;;;;;5115101;27;20035;-40
2023/07/19 02:02:01;;;;;;;11.68;10.50;;;16.10;99.90;;;;;;5113096;27;20066;-40
2023/07/19 02:04:27;;;;;;;11.10;9.68;;;16.20;99.90;;;;;;5115246;27;20401;-40
2023/07/19 02:06:53;;;;;;;10.63;9.52;;;16.10;99.90;;;;;;5095115;28;20536;-40
2023/07/19 02:09:19;;;;;;;10.48;9.48;;;16.20;99.90;;;;;;5112458;27;20122;-40
2023/07/19 02:11:44;;;;;;;12.32;10.20;;;16.10;99.90;;;;;;5115053;27;20047;-40
2023/07/19 02:14:10;;;;;;;11.40;10.40;;;16.10;99.90;;;;;;5111904;27;20047;-40
2023/07/19 02:16:36;;;;;;;10.60;9.60;;;16.00;99.90;;;;;;5105667;27;20486;-40
2023/07/19 02:19:03;;;;;;;10.70;9.52;;;16.00;99.90;;;;;;5111838;27;20489;-40
2023/07/19 02:21:29;;;;;;;11.07;9.32;;;16.00;99.90;;;;;;5096868;28;20047;-40
2023/07/19 02:23:55;;;;;;;10.85;9.82;;;16.00;99.90;;;;;;5113811;27;20098;-40
2023/07/19 02:26:21;;;;;;;11.13;10.10;;;16.00;99.90;;;;;;5140323;27;20039;-40
2023/07/19 02:28:46;;;;;;;12.55;11.23;;;16.00;99.90;;;;;;5115184;27;20508;-40
2023/07/19 02:31:12;;;;;;;11.90;10.68;;;16.00;99.90;;;;;;5118323;27;20150;-40
2023/07/19 02:33:38;;;;;;;10.13;9.23;;;15.90;99.90;;;;;;5118179;27;20050;-40
2023/07/19 02:36:03;;;;;;;11.15;10.00;;;15.90;99.90;;;;;;5108433;27;20047;-40
2023/07/19 02:38:29;;;;;;;11.32;10.25;;;15.90;99.90;;;;;;5114655;27;20043;-40
2023/07/19 02:40:59;;;;;;;11.90;10.60;;;15.90;99.90;;;;;;5118882;27;20043;-40
2023/07/19 02:43:26;;;;;;;11.88;10.10;;;16.00;99.90;;;;;;5121617;27;20039;-40
2023/07/19 02:45:55;;;;;;;10.93;9.93;;;16.00;99.90;;;;;;5098260;27;20465;-40
2023/07/19 02:48:22;;;;;;;13.98;10.13;;;16.00;99.90;;;;;;5078616;28;20047;-40
2023/07/19 02:50:48;;;;;;;12.65;10.38;;;16.00;99.90;;;;;;5099583;27;20040;-40
2023/07/19 02:53:15;;;;;;;10.40;9.40;;;16.00;99.90;;;;;;5117215;27;21043;-40
2023/07/19 02:55:45;;;;;;;10.90;9.80;;;16.00;99.90;;;;;;5107062;27;20058;-40
2023/07/19 02:58:11;;;;;;;13.25;10.77;;;15.90;99.90;;;;;;5085107;27;20043;-40
2023/07/19 03:00:42;;;;;;;12.80;11.00;;;15.90;99.90;;;;;;5118273;27;20350;-40
2023/07/19 03:03:11;;;;;;;12.32;10.13;;;15.90;99.90;;;;;;5105862;27;20122;-40
2023/07/19 03:05:43;;;;;;;13.45;10.82;;;15.90;99.90;;;;;;5116927;27;20047;-40
2023/07/19 03:08:09;;;;;;;13.60;10.25;;;15.90;99.90;;;;;;5099287;27;20052;-40
2023/07/19 03:10:36;;;;;;;11.98;10.68;;;15.90;99.90;;;;;;5117960;27;20093;-40
2023/07/19 03:13:02;;;;;;;12.88;10.00;;;15.90;99.90;;;;;;5099672;27;20062;-40
2023/07/19 03:15:33;;;;;;;12.05;10.68;;;15.90;99.90;;;;;;5105296;27;20048;-40
2023/07/19 03:18:03;;;;;;;10.27;9.30;;;15.90;99.90;;;;;;5117319;27;20047;-40
2023/07/19 03:20:30;;;;;;;11.38;9.98;;;15.90;99.90;;;;;;5100002;27;20130;-40
2023/07/19 03:22:56;;;;;;;12.85;9.93;;;16.00;99.90;;;;;;5114147;27;20092;-40
2023/07/19 03:25:25;;;;;;;13.30;10.43;;;16.00;99.90;;;;;;5113680;27;20806;-40
2023/07/19 03:27:51;;;;;;;11.95;10.95;;;16.00;99.90;;;;;;5117052;27;20401;-39
2023/07/19 03:30:17;;;;;;;12.23;11.00;;;16.00;99.90;;;;;;5117285;27;20386;-40
2023/07/19 03:32:43;;;;;;;14.18;10.38;;;16.00;99.90;;;;;;5106808;27;20031;-40
2023/07/19 03:35:08;;;;;;;13.63;11.25;;;16.00;99.90;;;;;;5117368;27;20055;-40
2023/07/19 03:37:35;;;;;;;12.52;10.18;;;16.00;99.90;;;;;;5116549;27;20335;-39
2023/07/19 03:40:01;;;;;;;11.88;10.43;;;16.00;99.90;;;;;;5114669;27;20184;-39
2023/07/19 03:42:27;;;;;;;12.93;10.45;;;16.00;99.90;;;;;;5117684;27;20440;-41
2023/07/19 03:44:52;;;;;;;12.55;11.05;;;16.00;99.90;;;;;;5115740;27;20039;-40
2023/07/19 03:47:18;;;;;;;12.70;11.18;;;16.00;99.90;;;;;;5116759;27;20039;-40
2023/07/19 03:49:43;;;;;;;14.43;11.82;;;16.00;99.90;;;;;;5107731;27;20039;-40
2023/07/19 03:52:09;;;;;;;14.35;11.20;;;16.00;99.90;;;;;;5138254;27;20092;-40
2023/07/19 03:54:35;;;;;;;13.13;11.82;;;16.00;99.90;;;;;;5138106;27;20042;-40
2023/07/19 03:57:01;;;;;;;12.57;11.38;;;16.00;99.90;;;;;;5137719;27;20042;-40
2023/07/19 03:59:27;;;;;;;14.43;10.93;;;16.10;99.90;;;;;;5129038;27;20118;-41
2023/07/19 04:01:52;;;;;;;12.85;11.00;;;16.10;99.90;;;;;;5116983;27;20043;-41
2023/07/19 04:04:18;;;;;;;15.00;11.82;;;16.10;99.90;;;;;;5098911;27;20683;-40
2023/07/19 04:06:43;;;;;;;11.80;10.60;;;16.20;99.90;;;;;;5116297;27;20043;-40
2023/07/19 04:09:09;;;;;;;11.32;10.20;;;16.20;99.90;;;;;;5108027;27;20079;-40
2023/07/19 04:11:35;;;;;;;12.55;11.10;;;16.30;99.90;;;;;;5116730;27;20146;-40
2023/07/19 04:14:01;;;;;;;14.50;11.23;;;16.30;99.90;;;;;;5114798;27;20081;-40
2023/07/19 04:16:26;;;;;;;11.93;10.25;;;16.30;99.90;;;;;;5105309;27;20504;-40
2023/07/19 04:18:52;;;;;;;12.10;10.75;;;16.40;99.90;;;;;;5111734;27;20070;-40
2023/07/19 04:21:18;;;;;;;13.00;11.07;;;16.40;99.90;;;;;;5116999;27;20507;-40
2023/07/19 04:23:44;;;;;;;13.18;10.20;;;16.40;99.90;;;;;;5109933;27;20442;-40
2023/07/19 04:26:10;;;;;;;12.55;10.70;;;16.40;99.90;;;;;;5116310;27;20122;-41
2023/07/19 04:28:36;;;;;;;12.23;10.43;;;16.40;99.90;;;;;;5116151;27;20678;-40
2023/07/19 04:31:01;;;;;;;11.38;10.27;;;16.40;99.90;;;;;;5073695;28;20059;-40
2023/07/19 04:33:27;;;;;;;10.27;8.68;;;16.40;99.90;;;;;;5111631;27;20035;-40
2023/07/19 04:35:53;;;;;;;11.52;9.48;;;16.50;99.90;;;;;;5116688;27;20043;-40
2023/07/19 04:38:18;;;;;;;10.07;8.40;;;16.50;99.90;;;;;;5096222;27;20065;-40
2023/07/19 04:40:44;;;;;;;13.63;7.00;;;16.50;99.90;;;;;;5116022;27;20035;-40
2023/07/19 04:43:09;;;;;;;9.82;6.75;;;16.60;99.90;;;;;;5112877;27;20483;-40
2023/07/19 04:45:35;;;;;;;13.10;6.43;;;16.70;99.90;;;;;;5115919;27;20394;-40
2023/07/19 04:48:03;;;;;;;7.97;6.10;;;16.70;99.90;;;;;;5115238;27;20076;-40
2023/07/19 04:50:29;;;;;;;7.07;5.50;;;16.70;99.90;;;;;;5114269;27;20043;-40
2023/07/19 04:52:54;;;;;;;8.65;5.00;;;16.70;99.90;;;;;;5112285;27;20420;-40
2023/07/19 04:55:21;;;;;;;7.80;4.13;;;16.70;99.90;;;;;;5116848;27;20507;-41
2023/07/19 04:57:47;;;;;;;6.93;3.83;;;16.70;99.90;;;;;;5115007;27;20230;-40
2023/07/19 05:00:14;;;;;;;6.93;3.08;;;16.70;99.90;;;;;;5116679;27;20047;-40
2023/07/19 05:02:41;;;;;;;5.07;2.38;;;16.70;99.90;;;;;;5112000;27;20695;-40
2023/07/19 05:05:07;;;;;;;5.85;2.78;;;16.70;99.90;;;;;;5115853;27;20043;-40
2023/07/19 05:07:37;;;;;;;7.32;2.40;;;16.60;99.90;;;;;;5114803;27;20050;-40
2023/07/19 05:10:04;;;;;;;7.57;3.05;;;16.60;99.90;;;;;;5116049;27;20580;-40
2023/07/19 05:12:31;;;;;;;6.38;2.53;;;16.60;99.90;;;;;;5115264;27;20047;-40
2023/07/19 05:14:57;;;;;;;3.90;2.22;;;16.60;99.90;;;;;;5096066;27;20040;-40
2023/07/19 05:17:22;;;;;;;7.32;2.65;;;16.60;99.90;;;;;;5113045;27;20047;-40
2023/07/19 05:19:48;;;;;;;4.03;1.85;;;16.60;99.90;;;;;;5115839;27;20050;-40
2023/07/19 05:22:14;;;;;;;5.18;2.10;;;16.60;99.90;;;;;;5115251;27;20152;-40
2023/07/19 05:24:40;;;;;;;4.07;1.92;;;16.60;99.90;;;;;;5108764;27;20043;-41
2023/07/19 05:27:06;;;;;;;4.40;1.60;;;16.70;99.90;;;;;;5114379;27;20046;-40
2023/07/19 05:29:32;;;;;;;3.50;1.38;;;16.70;99.90;;;;;;5110216;27;20039;-40
2023/07/19 05:31:58;;;;;;;4.43;1.90;;;16.70;99.90;;;;;;5115169;27;20062;-40
2023/07/19 05:34:25;;;;;;;6.35;3.28;;;16.70;99.90;;;;;;5108345;27;20492;-40
2023/07/19 05:36:51;;;;;;;5.20;2.00;;;16.70;99.90;;;;;;5075078;27;20079;-40
2023/07/19 05:39:16;;;;;;;4.40;2.00;;;16.70;99.90;;;;;;5107561;27;20525;-40
2023/07/19 05:41:42;;;;;;;3.97;1.85;;;16.70;99.90;;;;;;5104383;27;20508;-40
2023/07/19 05:44:08;;;;;;;6.25;2.13;;;16.70;99.90;;;;;;5095020;28;20144;-40
2023/07/19 05:46:36;;;;;;;2.35;1.98;;;16.70;99.90;;;;;;5114377;27;20054;-40
2023/07/19 05:49:02;;;;;;;6.38;2.10;;;16.80;99.90;;;;;;5097836;28;20051;-40
2023/07/19 05:51:28;;;;;;;4.25;2.15;;;16.90;99.90;;;;;;5115340;27;20338;-40
2023/07/19 05:53:54;;;;;;;6.10;1.92;;;16.90;99.90;;;;;;5115951;27;20043;-40
2023/07/19 05:56:21;;;;;;;4.53;2.15;;;17.10;99.90;;;;;;5114787;27;20142;-41
2023/07/19 05:58:47;;;;;;;4.97;2.60;;;17.10;99.90;;;;;;5110268;27;20155;-41
2023/07/19 06:01:17;;;;;;;3.65;2.05;;;17.20;99.90;;;;;;5116652;27;20126;-40
2023/07/19 06:03:46;;;;;;;5.78;2.20;;;17.20;99.90;;;;;;5100943;27;20062;-40
2023/07/19 06:06:12;;;;;;;4.88;2.85;;;17.20;99.90;;;;;;5134442;27;20111;-40
2023/07/19 06:08:38;;;;;;;8.30;3.08;;;17.20;99.90;;;;;;5111514;27;20100;-40
2023/07/19 06:11:03;;;;;;;11.85;4.47;;;17.10;99.90;;;;;;5119485;27;20043;-40
2023/07/19 06:13:29;;;;;;;6.55;4.18;;;17.10;99.90;;;;;;5100309;27;20042;-40
2023/07/19 06:15:56;;;;;;;8.95;4.85;;;17.10;99.90;;;;;;5088665;27;20049;-40
2023/07/19 06:18:23;;;;;;;8.43;4.72;;;17.00;99.90;;;;;;5091881;27;20588;-40
2023/07/19 06:20:49;;;;;;;7.55;5.28;;;17.00;99.90;;;;;;5118988;27;20073;-40
2023/07/19 06:23:14;;;;;;;6.72;5.00;;;17.00;99.90;;;;;;5115018;27;20115;-40
2023/07/19 06:25:41;;;;;;;8.85;4.95;;;17.00;99.90;;;;;;5100888;27;20405;-40
2023/07/19 06:28:08;;;;;;;10.88;5.80;;;17.00;99.90;;;;;;5117435;27;20058;-40
2023/07/19 06:30:33;;;;;;;9.05;5.70;;;17.00;99.90;;;;;;5118302;27;20043;-40
2023/07/19 06:32:59;;;;;;;9.25;6.65;;;17.00;99.90;;;;;;5119520;27;20079;-40
2023/07/19 06:35:25;;;;;;;8.15;5.80;;;17.00;99.90;;;;;;5119429;27;20046;-40
2023/07/19 06:37:51;;;;;;;9.88;5.97;;;17.00;99.90;;;;;;5070605;28;20055;-40
2023/07/19 06:40:17;;;;;;;12.02;6.15;;;17.00;99.90;;;;;;5085018;27;20055;-40
2023/07/19 06:42:43;;;;;;;8.13;5.95;;;17.00;99.90;;;;;;5117509;27;20038;-40
2023/07/19 06:45:09;;;;;;;16.15;6.63;;;17.00;99.90;;;;;;5137237;27;20038;-40
2023/07/19 06:47:35;;;;;;;10.60;6.18;;;17.00;99.90;;;;;;5120065;27;20505;-40
2023/07/19 06:50:02;;;;;;;9.27;5.55;;;17.10;99.90;;;;;;5117947;27;20051;-41
2023/07/19 06:52:28;;;;;;;8.10;5.45;;;17.20;99.90;;;;;;5119208;27;20073;-40
2023/07/19 06:54:53;;;;;;;12.13;5.78;;;17.20;99.90;;;;;;5119409;27;20050;-40
2023/07/19 06:57:22;;;;;;;6.57;5.05;;;17.30;99.90;;;;;;5115620;27;20046;-40
2023/07/19 06:59:49;;;;;;;10.38;4.88;;;17.40;99.90;;;;;;5118548;27;20054;-41
2023/07/19 07:02:18;;;;;;;7.97;4.40;;;17.40;99.90;;;;;;5119599;27;20052;-41
2023/07/19 07:04:47;;;;;;;10.10;4.82;;;17.50;99.90;;;;;;5105751;27;20047;-40
2023/07/19 07:07:15;;;;;;;11.65;4.72;;;17.50;99.90;;;;;;5117739;27;20843;-40
2023/07/19 07:09:41;;;;;;;11.93;4.35;;;17.50;99.90;;;;;;5106666;27;20051;-41
2023/07/19 07:12:09;;;;;;;6.38;3.83;;;17.50;99.90;;;;;;5118818;27;20057;-40
2023/07/19 07:14:34;;;;;;;10.55;3.95;;;17.60;99.90;;;;;;5111878;27;20440;-41
2023/07/19 07:17:00;;;;;;;7.25;3.40;;;17.60;99.90;;;;;;5112893;27;20043;-40
2023/07/19 07:19:26;;;;;;;6.70;3.80;;;17.50;99.90;;;;;;5107529;27;20256;-40
2023/07/19 07:21:51;;;;;;;9.73;4.28;;;17.60;99.90;;;;;;5118583;27;20074;-40
2023/07/19 07:24:17;;;;;;;7.50;3.95;;;17.60;99.90;;;;;;5110794;27;20707;-40
2023/07/19 07:26:43;;;;;;;7.68;3.75;;;17.80;99.90;;;;;;5117173;27;20043;-40
2023/07/19 07:29:08;;;;;;;8.27;4.13;;;17.90;99.90;;;;;;5114344;27;20054;-40
2023/07/19 07:31:34;;;;;;;5.82;3.95;;;18.00;99.90;;;;;;5118137;27;20236;-40
2023/07/19 07:34:00;;;;;;;12.00;4.68;;;18.20;99.90;;;;;;5099933;27;20064;-40
2023/07/19 07:36:25;;;;;;;6.35;4.03;;;18.20;99.90;;;;;;5116912;27;20118;-41
2023/07/19 07:38:51;;;;;;;9.38;4.65;;;18.30;99.90;;;;;;5117051;27;20474;-40
2023/07/19 07:41:17;;;;;;;9.88;4.57;;;18.30;99.90;;;;;;5118308;27;20084;-41
2023/07/19 07:43:43;;;;;;;8.43;4.63;;;18.40;99.90;;;;;;5115338;27;20048;-41
2023/07/19 07:46:08;;;;;;;9.88;4.10;;;18.60;99.90;;;;;;5117075;27;20522;-41
2023/07/19 07:48:34;;;;;;;7.88;4.50;;;18.80;99.90;;;;;;5115776;27;20061;-41
2023/07/19 07:51:00;;;;;;;7.63;4.35;;;18.90;99.90;;;;;;5117713;27;20083;-40
2023/07/19 07:53:26;;;;;;;7.35;3.50;;;19.00;99.90;;;;;;5117375;27;20043;-40
2023/07/19 07:55:52;;;;;;;6.75;3.67;;;18.90;99.90;;;;;;5109272;27;20476;-40
2023/07/19 07:58:17;;;;;;;7.22;3.70;;;19.00;99.90;;;;;;5117809;27;20414;-40
2023/07/19 08:00:44;;;;;;;6.88;4.78;;;19.00;99.90;;;;;;5118585;27;20103;-40
2023/07/19 08:03:09;;;;;;;8.95;3.72;;;19.00;99.90;;;;;;5112345;27;20481;-40
2023/07/19 08:05:36;;;;;;;9.70;3.80;;;19.00;99.90;;;;;;5092171;27;20071;-40
2023/07/19 08:08:04;;;;;;;6.32;2.80;;;19.00;99.90;;;;;;5116095;27;20044;-40
2023/07/19 08:10:30;;;;;;;9.38;3.45;;;19.10;99.90;;;;;;5116908;27;20104;-40
2023/07/19 08:12:55;;;;;;;6.38;3.63;;;19.10;99.90;;;;;;5085934;27;20302;-41
2023/07/19 08:15:23;;;;;;;8.30;3.10;;;19.20;99.90;;;;;;5102943;27;20035;-40
2023/07/19 08:17:49;;;;;;;7.03;3.40;;;19.20;99.90;;;;;;5096613;27;20085;-40
2023/07/19 08:20:15;;;;;;;7.45;3.33;;;19.20;99.90;;;;;;5130176;27;20530;-40
2023/07/19 08:22:40;;;;;;;8.65;3.60;;;19.30;99.90;;;;;;5136696;27;20122;-40
2023/07/19 08:25:06;;;;;;;6.20;3.92;;;19.30;99.90;;;;;;5109914;27;20043;-40
2023/07/19 08:27:32;;;;;;;7.05;3.45;;;19.30;99.90;;;;;;5116162;27;20361;-41
2023/07/19 08:30:00;;;;;;;7.07;3.10;;;19.30;99.90;;;;;;5098477;27;20489;-40
2023/07/19 08:32:26;;;;;;;7.07;3.60;;;19.50;99.90;;;;;;5117372;27;20432;-40
2023/07/19 08:34:51;;;;;;;9.13;3.40;;;19.30;99.90;;;;;;5113759;27;20047;-40
2023/07/19 08:37:18;;;;;;;4.78;3.20;;;19.20;99.90;;;;;;5115994;27;20039;-42
2023/07/19 08:39:43;;;;;;;6.63;2.80;;;19.20;99.90;;;;;;5116599;27;20058;-40
2023/07/19 08:42:09;;;;;;;4.13;2.50;;;19.20;99.90;;;;;;5116774;27;20043;-41
2023/07/19 08:44:36;;;;;;;7.35;2.70;;;19.30;99.90;;;;;;5098176;27;20043;-40
2023/07/19 08:47:04;;;;;;;6.18;2.83;;;19.40;99.90;;;;;;5096172;27;20612;-41
2023/07/19 08:49:33;;;;;;;4.20;2.70;;;19.70;99.90;;;;;;5097523;27;20077;-40
2023/07/19 08:52:02;;;;;;;5.20;2.90;;;19.90;99.90;;;;;;5103965;27;20125;-40
2023/07/19 08:54:28;;;;;;;5.15;2.38;;;20.10;99.90;;;;;;5113312;27;20043;-40
2023/07/19 08:56:54;;;;;;;4.50;2.25;;;20.20;99.90;;;;;;5104509;27;20397;-40
2023/07/19 08:59:20;;;;;;;4.05;2.20;;;20.50;99.90;;;;;;5078981;27;20052;-40
2023/07/19 09:01:46;;;;;;;3.85;2.25;;;20.60;99.90;;;;;;5097210;27;20241;-41
2023/07/19 09:04:11;;;;;;;4.28;2.47;;;20.90;99.90;;;;;;5098004;27;20046;-40
2023/07/19 09:06:39;;;;;;;4.63;2.00;;;21.10;99.90;;;;;;5115440;27;20047;-39
2023/07/19 09:09:13;;;;;;;4.15;1.73;;;21.40;99.90;;;;;;5116547;27;20062;-40
2023/07/19 09:11:45;;;;;;;5.35;2.15;;;21.80;99.90;;;;;;5116259;27;20130;-40
2023/07/19 09:14:11;;;;;;;3.47;1.70;;;22.10;99.90;;;;;;5112143;27;20040;-40
2023/07/19 09:16:38;;;;;;;5.28;2.35;;;22.00;99.90;;;;;;5105352;27;20047;-41
2023/07/19 09:19:04;;;;;;;4.00;2.03;;;22.30;99.90;;;;;;5118577;27;20436;-43
2023/07/19 09:21:44;;;;;;;4.43;2.00;;;22.60;99.90;;;;;;5116717;27;20361;-41
2023/07/19 09:24:11;;;;;;;5.40;1.92;;;22.40;99.90;;;;;;5097256;27;20043;-42
2023/07/19 09:26:51;;;;;;;4.75;1.90;;;22.10;99.90;;;;;;5116158;27;20078;-40
2023/07/19 09:29:18;;;;;;;9.00;3.03;;;21.80;99.90;;;;;;5117168;27;20039;-41
2023/07/19 09:31:57;;;;;;;4.65;2.05;;;21.50;99.90;;;;;;5117136;27;20236;-40
2023/07/19 09:34:26;;;;;;;3.53;1.88;;;21.10;99.90;;;;;;5117821;27;20092;-40
2023/07/19 09:36:53;;;;;;;3.50;1.90;;;20.90;99.90;;;;;;5119406;27;20126;-40
2023/07/19 09:39:20;;;;;;;2.17;1.80;;;20.80;99.90;;;;;;5116043;27;20093;-40
2023/07/19 09:41:46;;;;;;;7.63;2.30;;;20.90;99.90;;;;;;5117276;27;20561;-41
2023/07/19 09:44:15;;;;;;;5.55;1.90;;;20.90;99.90;;;;;;5095997;28;20055;-40
2023/07/19 09:46:41;;;;;;;5.45;2.17;;;21.20;99.90;;;;;;5109677;27;20494;-40
2023/07/19 09:49:07;;;;;;;5.53;2.10;;;21.70;99.90;;;;;;5109461;28;20039;-40
2023/07/19 09:51:35;;;;;;;5.65;1.73;;;22.00;99.90;;;;;;5112474;27;20371;-40
2023/07/19 09:54:03;;;;;;;4.65;2.05;;;22.20;99.90;;;;;;5105587;27;20377;-40
2023/07/19 09:56:29;;;;;;;4.65;2.00;;;22.30;99.90;;;;;;5127247;27;20458;-40
2023/07/19 09:58:56;;;;;;;5.88;2.17;;;22.30;99.90;;;;;;5105539;27;20050;-40
2023/07/19 10:01:22;;;;;;;5.53;1.92;;;22.40;99.90;;;;;;5086516;28;20237;-40
2023/07/19 10:03:48;;;;;;;6.10;2.60;;;22.50;99.90;;;;;;5099635;27;20036;-40
2023/07/19 10:06:17;;;;;;;3.40;2.20;;;22.50;99.90;;;;;;5121253;27;20039;-41
2023/07/19 10:08:43;;;;;;;4.03;1.70;;;22.90;99.90;;;;;;5102906;27;20131;-41
2023/07/19 10:11:21;;;;;;;3.33;1.92;;;23.00;99.90;;;;;;5103567;27;20043;-41
2023/07/19 10:13:56;;;;;;;3.83;1.75;;;22.90;99.90;;;;;;5120786;27;20046;-42
2023/07/19 10:16:34;;;;;;;4.82;2.30;;;22.70;99.90;;;;;;5103710;27;20134;-40
2023/07/19 10:19:13;;;;;;;5.40;2.65;;;22.30;99.90;;;;;;5100586;27;20402;-41
2023/07/19 10:22:01;;;;;;;5.20;1.85;;;22.20;99.90;;;;;;5125439;27;20042;-40
2023/07/19 10:24:27;;;;;;;4.25;1.85;;;22.30;99.90;;;;;;5122185;27;20858;-41
2023/07/19 10:26:52;;;;;;;4.30;1.83;;;22.80;99.90;;;;;;5106778;27;20716;-41
2023/07/19 10:29:18;;;;;;;2.97;2.25;;;22.90;99.90;;;;;;5103191;28;20039;-40
2023/07/19 10:31:44;;;;;;;7.28;2.28;;;23.00;99.90;;;;;;5111937;27;20042;-40
2023/07/19 10:34:11;;;;;;;5.25;2.47;;;23.00;99.90;;;;;;5115697;27;20499;-40
2023/07/19 10:36:48;;;;;;;6.38;2.85;;;22.70;99.90;;;;;;5115904;27;20047;-41
2023/07/19 10:39:14;;;;;;;5.07;3.03;;;22.60;99.90;;;;;;5118252;27;20046;-40
2023/07/19 10:41:40;;;;;;;5.95;2.20;;;22.50;99.90;;;;;;5114579;28;20050;-40
2023/07/19 10:44:05;;;;;;;4.93;2.47;;;22.50;99.90;;;;;;5108488;27;20035;-40
2023/07/19 10:46:31;;;;;;;4.95;2.70;;;22.60;99.90;;;;;;5109078;27;20472;-40
2023/07/19 10:48:58;;;;;;;5.85;2.55;;;22.50;99.90;;;;;;5109177;27;20354;-40
2023/07/19 10:51:24;;;;;;;5.85;2.50;;;22.60;99.90;;;;;;5113110;27;20047;-40
2023/07/19 10:53:56;;;;;;;5.68;2.80;;;22.60;99.90;;;;;;5105725;27;20043;-40
2023/07/19 10:56:22;;;;;;;6.95;2.88;;;22.70;99.90;;;;;;5113728;27;20445;-41
2023/07/19 10:58:48;;;;;;;5.50;2.63;;;22.70;99.90;;;;;;5106828;27;20043;-42
2023/07/19 11:01:16;;;;;;;5.50;2.72;;;22.90;99.90;;;;;;5110292;27;20046;-40
2023/07/19 11:03:45;;;;;;;4.20;2.60;;;23.20;99.90;;;;;;5104770;27;20039;-40
2023/07/19 11:06:11;;;;;;;5.45;2.75;;;23.50;99.90;;;;;;5099872;27;20039;-41
2023/07/19 11:08:37;;;;;;;4.75;2.70;;;23.90;99.90;;;;;;5072240;27;20062;-40
2023/07/19 11:11:03;;;;;;;5.22;2.30;;;24.10;99.90;;;;;;5107211;27;20046;-40
2023/07/19 11:13:30;;;;;;;3.05;2.03;;;24.10;99.90;;;;;;5064496;27;20038;-40
2023/07/19 11:15:58;;;;;;;4.72;2.33;;;24.00;99.90;;;;;;5106113;27;20667;-40
2023/07/19 11:18:40;;;;;;;5.55;2.85;;;23.90;99.90;;;;;;5105221;27;20490;-40
2023/07/19 11:21:06;;;;;;;3.83;2.42;;;23.60;99.90;;;;;;5099036;27;21056;-40
2023/07/19 11:23:41;;;;;;;4.60;2.55;;;23.50;99.90;;;;;;5081423;27;20039;-42
2023/07/19 11:26:11;;;;;;;5.80;2.90;;;23.40;99.90;;;;;;5104981;27;20048;-41
2023/07/19 11:29:00;;;;;;;4.57;2.75;;;23.60;99.90;;;;;;5101446;27;20402;-40
2023/07/19 11:31:34;;;;;;;3.65;2.22;;;23.90;99.90;;;;;;5107474;27;20401;-40
2023/07/19 11:34:03;;;;;;;4.47;2.10;;;23.80;99.90;;;;;;5102325;27;20602;-39
2023/07/19 11:36:29;;;;;;;3.55;2.30;;;23.60;99.90;;;;;;5107748;27;20068;-40
2023/07/19 11:38:55;;;;;;;4.63;2.10;;;23.30;99.90;;;;;;5099682;27;20073;-40
2023/07/19 11:41:20;;;;;;;5.70;2.95;;;23.20;99.90;;;;;;5096965;27;20100;-41
2023/07/19 11:43:52;;;;;;;5.95;3.38;;;22.80;99.90;;;;;;5081855;27;20064;-41
2023/07/19 11:46:18;;;;;;;4.75;2.88;;;22.60;99.90;;;;;;5104092;27;20107;-41
2023/07/19 11:48:46;;;;;;;5.13;2.85;;;22.40;99.90;;;;;;5100271;27;20042;-42
2023/07/19 11:51:13;;;;;;;4.18;2.47;;;22.40;99.90;;;;;;5102301;27;20478;-40
2023/07/19 11:53:39;;;;;;;5.18;2.80;;;22.60;99.90;;;;;;5086676;27;20043;-40
2023/07/19 11:56:05;;;;;;;6.97;2.63;;;22.70;99.90;;;;;;5086335;27;20050;-40
2023/07/19 11:58:33;;;;;;;3.72;2.63;;;22.70;99.90;;;;;;5085665;27;20137;-42
2023/07/19 12:01:00;;;;;;;5.22;2.67;;;22.80;99.90;;;;;;5087618;27;20047;-40
2023/07/19 12:03:26;;;;;;;6.15;3.15;;;22.90;99.90;;;;;;5097378;27;20374;-40
2023/07/19 12:05:52;;;;;;;5.07;2.58;;;22.90;99.90;;;;;;5086452;27;20541;-40
2023/07/19 12:08:17;;;;;;;3.17;2.15;;;22.80;99.90;;;;;;5097532;27;20043;-41
2023/07/19 12:10:43;;;;;;;4.70;2.75;;;22.80;99.90;;;;;;5097661;27;21192;-40
2023/07/19 12:13:09;;;;;;;9.57;3.08;;;22.70;99.90;;;;;;5101588;27;20084;-40
2023/07/19 12:15:35;;;;;;;5.75;2.72;;;22.60;99.90;;;;;;5100501;27;20043;-40
2023/07/19 12:18:00;;;;;;;4.00;2.65;;;22.60;99.90;;;;;;5102040;27;20096;-42
2023/07/19 12:20:27;;;;;;;6.60;2.50;;;22.60;99.90;;;;;;5104063;27;20505;-41
2023/07/19 12:22:53;;;;;;;3.72;2.22;;;22.50;99.90;;;;;;5108987;27;20044;-40
2023/07/19 12:25:20;;;;;;;5.32;2.05;;;22.70;99.90;;;;;;5100448;27;20548;-40
2023/07/19 12:27:52;;;;;;;3.78;2.03;;;22.60;99.90;;;;;;5107483;27;20048;-40
2023/07/19 12:30:18;;;;;;;6.22;1.90;;;22.90;99.90;;;;;;5075455;27;20059;-41
2023/07/19 12:32:43;;;;;;;9.80;2.25;;;23.00;99.90;;;;;;5100844;27;20031;-40
2023/07/19 12:35:09;;;;;;;4.13;1.85;;;23.10;99.90;;;;;;5102897;27;20047;-42
2023/07/19 12:37:35;;;;;;;3.13;1.83;;;23.00;99.90;;;;;;5086645;27;20042;-40